首页
METAR-TAF:

METAR-TAF

机场 :

石油平台

A12-cpp, 荷兰

纬度: 55-23-57N, 经度: 3-48-37E, 海拔: 33米

当前天气观测

该预报发布于23分钟前的09:55 UTC
风速21节,风向北转西北,在西北北转东北之间变化
温度 15°C
湿度 67%
气压 1007 hPa
能见度10公里或以上

METAR: EHAK 010955Z AUTO 34021KT 320V030 9999 SCT000/// SCT015/// BKN024/// 15/09 Q1007

时间: 12:18 (10:18 UTC)


TAF: 丢失

超过4000个机场的气象观测和天气预报(METAR&TAF报告)。

可查询的气象台以黄色和红色小点在地图上表示。

将鼠标移到小点上方,可查看气象台名称。

然后点击查看天气观测和预报。

如需切换地图:点击带黑十字的绿色按钮放大地图;点击带横线的绿色按钮缩小地图;或者点击绿色箭头查看邻近地区的地图。


METAR-TAF: